San Rafael, Argentina
Current Conditions -  °F | °C
As of 11:00 AM on Saturday 20 Dec 2014 (Local Time) from SANT Reporting Station
Clear Clear  
Wind Chill: 88°   Ceiling: Unl
Heat Index: 96°   Visibility: 6mi
Dew Point: 73°   Wind: 7mph
Humidity: 62%   Direction: 180°S
Pressure: 29.5"   Gusts: NA
Location:  26.97°S, 65.38°W
Report Text: SANT 201400Z 18006KT CAVOK 31/23 Q0999
Loading
Personal Weather Stations






























Interactive Weather Map New forecast layout! Learn more

10-Day Weather Forecast

Advertisements
Track Severe Weather on mobile